sensor_id;sensor_type;location;lat;lon;timestamp;pressure;altitude;pressure_sealevel;temperature;humidity
59757;BME280;45631;51.962;5.974;2022-11-15T00:01:19;100757.88;;;6.79;100.00
59757;BME280;45631;51.962;5.974;2022-11-15T00:03:50;100752.41;;;6.84;100.00
59757;BME280;45631;51.962;5.974;2022-11-15T00:06:19;100750.56;;;6.86;100.00
59757;BME280;45631;51.962;5.974;2022-11-15T00:08:47;100758.25;;;6.89;100.00
59757;BME280;45631;51.962;5.974;2022-11-15T00:11:15;100747.00;;;6.87;100.00
59757;BME280;45631;51.962;5.974;2022-11-15T00:13:44;100749.41;;;6.91;100.00
59757;BME280;45631;51.962;5.974;2022-11-15T00:16:12;100749.41;;;6.91;100.00
59757;BME280;45631;51.962;5.974;2022-11-15T00:18:40;100746.78;;;6.91;100.00
59757;BME280;45631;51.962;5.974;2022-11-15T00:21:17;100742.41;;;6.92;100.00
59757;BME280;45631;51.962;5.974;2022-11-15T00:23:45;100739.47;;;6.98;100.00
59757;BME280;45631;51.962;5.974;2022-11-15T00:26:16;100737.69;;;6.99;100.00
59757;BME280;45631;51.962;5.974;2022-11-15T00:28:46;100732.63;;;6.96;100.00
59757;BME280;45631;51.962;5.974;2022-11-15T00:31:14;100731.69;;;6.97;100.00
59757;BME280;45631;51.962;5.974;2022-11-15T00:33:43;100721.00;;;7.01;100.00
59757;BME280;45631;51.962;5.974;2022-11-15T00:36:12;100725.38;;;7.01;100.00
59757;BME280;45631;51.962;5.974;2022-11-15T00:38:40;100720.09;;;7.02;100.00
59757;BME280;45631;51.962;5.974;2022-11-15T00:41:08;100726.06;;;7.04;100.00
59757;BME280;45631;51.962;5.974;2022-11-15T00:43:36;100720.84;;;7.04;100.00
59757;BME280;45631;51.962;5.974;2022-11-15T00:46:08;100724.22;;;7.06;100.00
59757;BME280;45631;51.962;5.974;2022-11-15T00:48:36;100721.63;;;7.06;100.00
59757;BME280;45631;51.962;5.974;2022-11-15T00:51:05;100716.66;;;7.18;100.00
59757;BME280;45631;51.962;5.974;2022-11-15T00:53:33;100719.66;;;7.10;100.00
59757;BME280;45631;51.962;5.974;2022-11-15T00:56:01;100717.75;;;7.14;100.00
59757;BME280;45631;51.962;5.974;2022-11-15T00:58:29;100715.88;;;7.16;100.00
59757;BME280;45631;51.962;5.974;2022-11-15T01:01:05;100708.91;;;7.16;100.00
59757;BME280;45631;51.962;5.974;2022-11-15T01:03:35;100710.72;;;7.14;100.00
59757;BME280;45631;51.962;5.974;2022-11-15T01:06:04;100704.50;;;7.17;100.00
59757;BME280;45631;51.962;5.974;2022-11-15T01:08:33;100699.09;;;7.20;100.00
59757;BME280;45631;51.962;5.974;2022-11-15T01:11:02;100693.81;;;7.21;100.00
59757;BME280;45631;51.962;5.974;2022-11-15T01:13:31;100689.41;;;7.22;100.00
59757;BME280;45631;51.962;5.974;2022-11-15T01:16:05;100693.81;;;7.21;100.00
59757;BME280;45631;51.962;5.974;2022-11-15T01:18:35;100691.63;;;7.30;100.00
59757;BME280;45631;51.962;5.974;2022-11-15T01:21:08;100689.09;;;7.28;100.00
59757;BME280;45631;51.962;5.974;2022-11-15T01:23:37;100691.72;;;7.28;100.00
59757;BME280;45631;51.962;5.974;2022-11-15T01:26:09;100686.53;;;7.26;100.00
59757;BME280;45631;51.962;5.974;2022-11-15T01:28:39;100689.16;;;7.26;100.00
59757;BME280;45631;51.962;5.974;2022-11-15T01:31:11;100677.53;;;7.32;100.00
59757;BME280;45631;51.962;5.974;2022-11-15T01:33:41;100669.59;;;7.34;100.00
59757;BME280;45631;51.962;5.974;2022-11-15T01:36:11;100671.13;;;7.38;100.00
59757;BME280;45631;51.962;5.974;2022-11-15T01:38:39;100664.72;;;7.43;100.00
59757;BME280;45631;51.962;5.974;2022-11-15T01:41:15;100660.31;;;7.44;100.00
59757;BME280;45631;51.962;5.974;2022-11-15T01:43:44;100651.34;;;7.48;100.00
59757;BME280;45631;51.962;5.974;2022-11-15T01:46:23;100659.81;;;7.53;100.00
59757;BME280;45631;51.962;5.974;2022-11-15T01:48:56;100653.75;;;7.53;100.00
59757;BME280;45631;51.962;5.974;2022-11-15T01:51:26;100663.19;;;7.55;100.00
59757;BME280;45631;51.962;5.974;2022-11-15T01:54:00;100654.47;;;7.55;100.00
59757;BME280;45631;51.962;5.974;2022-11-15T01:56:33;100645.63;;;7.57;100.00
59757;BME280;45631;51.962;5.974;2022-11-15T01:59:06;100651.69;;;7.58;100.00
59757;BME280;45631;51.962;5.974;2022-11-15T02:01:36;100661.06;;;7.62;100.00
59757;BME280;45631;51.962;5.974;2022-11-15T02:04:11;100653.72;;;7.69;100.00
59757;BME280;45631;51.962;5.974;2022-11-15T02:06:41;100652.97;;;7.67;100.00
59757;BME280;45631;51.962;5.974;2022-11-15T02:09:11;100646.25;;;7.77;100.00
59757;BME280;45631;51.962;5.974;2022-11-15T02:11:40;100649.97;;;7.73;100.00
59757;BME280;45631;51.962;5.974;2022-11-15T02:14:10;100649.84;;;7.76;100.00
59757;BME280;45631;51.962;5.974;2022-11-15T02:16:49;100646.13;;;7.80;100.00
59757;BME280;45631;51.962;5.974;2022-11-15T02:19:33;100650.81;;;7.89;100.00
59757;BME280;45631;51.962;5.974;2022-11-15T02:22:10;100644.81;;;7.87;100.00
59757;BME280;45631;51.962;5.974;2022-11-15T02:24:58;100638.38;;;7.93;100.00
59757;BME280;45631;51.962;5.974;2022-11-15T02:30:41;100639.16;;;7.95;100.00
59757;BME280;45631;51.962;5.974;2022-11-15T02:33:19;100640.00;;;7.95;100.00
59757;BME280;45631;51.962;5.974;2022-11-15T02:35:57;100637.38;;;7.95;100.00
59757;BME280;45631;51.962;5.974;2022-11-15T02:38:31;100637.09;;;8.00;100.00
59757;BME280;45631;51.962;5.974;2022-11-15T02:41:04;100632.72;;;8.01;100.00
59757;BME280;45631;51.962;5.974;2022-11-15T02:43:38;100623.06;;;8.01;100.00
59757;BME280;45631;51.962;5.974;2022-11-15T02:46:34;100622.56;;;8.10;100.00
59757;BME280;45631;51.962;5.974;2022-11-15T02:49:21;100611.25;;;8.10;100.00
59757;BME280;45631;51.962;5.974;2022-11-15T02:51:51;100615.53;;;8.11;100.00
59757;BME280;45631;51.962;5.974;2022-11-15T02:54:23;100611.25;;;8.10;100.00
59757;BME280;45631;51.962;5.974;2022-11-15T02:56:53;100613.56;;;8.15;100.00
59757;BME280;45631;51.962;5.974;2022-11-15T03:02:43;100601.16;;;8.18;100.00
59757;BME280;45631;51.962;5.974;2022-11-15T03:05:18;100604.16;;;8.26;100.00
59757;BME280;45631;51.962;5.974;2022-11-15T03:07:53;100592.38;;;8.34;100.00
59757;BME280;45631;51.962;5.974;2022-11-15T03:10:35;100592.56;;;8.31;100.00
59757;BME280;45631;51.962;5.974;2022-11-15T03:13:18;100591.44;;;8.35;100.00
59757;BME280;45631;51.962;5.974;2022-11-15T03:15:55;100587.72;;;8.39;100.00
59757;BME280;45631;51.962;5.974;2022-11-15T03:18:30;100592.19;;;8.37;100.00
59757;BME280;45631;51.962;5.974;2022-11-15T03:21:02;100587.50;;;8.42;100.00
59757;BME280;45631;51.962;5.974;2022-11-15T03:23:32;100585.72;;;8.42;100.00
59757;BME280;45631;51.962;5.974;2022-11-15T03:26:01;100587.00;;;8.51;100.00
59757;BME280;45631;51.962;5.974;2022-11-15T03:28:40;100584.38;;;8.51;100.00
59757;BME280;45631;51.962;5.974;2022-11-15T03:31:12;100581.66;;;8.53;100.00
59757;BME280;45631;51.962;5.974;2022-11-15T03:34:04;100576.88;;;8.59;100.00
59757;BME280;45631;51.962;5.974;2022-11-15T03:36:34;100577.72;;;8.60;100.00
59757;BME280;45631;51.962;5.974;2022-11-15T03:39:06;100584.47;;;8.64;100.00
59757;BME280;45631;51.962;5.974;2022-11-15T03:41:39;100586.06;;;8.67;100.00
59757;BME280;45631;51.962;5.974;2022-11-15T03:44:12;100589.16;;;8.73;100.00
59757;BME280;45631;51.962;5.974;2022-11-15T03:46:47;100589.97;;;8.74;100.00
59757;BME280;45631;51.962;5.974;2022-11-15T03:49:25;100588.94;;;8.76;100.00
59757;BME280;45631;51.962;5.974;2022-11-15T03:51:56;100583.69;;;8.76;100.00
59757;BME280;45631;51.962;5.974;2022-11-15T03:54:25;100586.69;;;8.85;100.00
59757;BME280;45631;51.962;5.974;2022-11-15T03:56:53;100590.91;;;8.87;100.00
59757;BME280;45631;51.962;5.974;2022-11-15T03:59:21;100595.13;;;8.90;100.00
59757;BME280;45631;51.962;5.974;2022-11-15T04:01:49;100592.50;;;8.90;100.00
59757;BME280;45631;51.962;5.974;2022-11-15T04:04:17;100596.63;;;8.94;100.00
59757;BME280;45631;51.962;5.974;2022-11-15T04:06:47;100594.47;;;9.01;100.00
59757;BME280;45631;51.962;5.974;2022-11-15T04:09:15;100597.28;;;8.98;100.00
59757;BME280;45631;51.962;5.974;2022-11-15T04:11:43;100596.72;;;9.07;100.00
59757;BME280;45631;51.962;5.974;2022-11-15T04:14:11;100601.09;;;9.06;100.00
59757;BME280;45631;51.962;5.974;2022-11-15T04:16:39;100598.38;;;9.08;100.00
59757;BME280;45631;51.962;5.974;2022-11-15T04:19:12;100587.88;;;9.08;100.00
59757;BME280;45631;51.962;5.974;2022-11-15T04:22:00;100591.38;;;9.08;100.00
59757;BME280;45631;51.962;5.974;2022-11-15T04:24:45;100598.09;;;9.12;100.00
59757;BME280;45631;51.962;5.974;2022-11-15T04:27:13;100595.19;;;9.17;100.00
59757;BME280;45631;51.962;5.974;2022-11-15T04:29:42;100589.94;;;9.17;100.00
59757;BME280;45631;51.962;5.974;2022-11-15T04:32:10;100581.13;;;9.18;100.00
59757;BME280;45631;51.962;5.974;2022-11-15T04:34:38;100581.13;;;9.18;100.00
59757;BME280;45631;51.962;5.974;2022-11-15T04:37:07;100579.06;;;9.23;100.00
59757;BME280;45631;51.962;5.974;2022-11-15T04:39:43;100581.69;;;9.23;100.00
59757;BME280;45631;51.962;5.974;2022-11-15T04:42:11;100578.97;;;9.25;100.00
59757;BME280;45631;51.962;5.974;2022-11-15T04:44:39;100585.91;;;9.26;100.00
59757;BME280;45631;51.962;5.974;2022-11-15T04:47:07;100582.97;;;9.30;100.00
59757;BME280;45631;51.962;5.974;2022-11-15T04:49:35;100583.19;;;9.27;100.00
59757;BME280;45631;51.962;5.974;2022-11-15T04:52:03;100582.13;;;9.30;100.00
59757;BME280;45631;51.962;5.974;2022-11-15T04:54:33;100588.31;;;9.29;100.00
59757;BME280;45631;51.962;5.974;2022-11-15T04:57:01;100583.19;;;9.27;100.00
59757;BME280;45631;51.962;5.974;2022-11-15T04:59:29;100588.41;;;9.27;100.00
59757;BME280;45631;51.962;5.974;2022-11-15T05:01:57;100587.50;;;9.28;100.00
59757;BME280;45631;51.962;5.974;2022-11-15T05:04:26;100578.56;;;9.31;100.00
59757;BME280;45631;51.962;5.974;2022-11-15T05:06:53;100581.38;;;9.28;100.00
59757;BME280;45631;51.962;5.974;2022-11-15T05:09:21;100583.72;;;9.33;100.00
59757;BME280;45631;51.962;5.974;2022-11-15T05:11:51;100586.34;;;9.33;100.00
59757;BME280;45631;51.962;5.974;2022-11-15T05:14:19;100583.81;;;9.31;100.00
59757;BME280;45631;51.962;5.974;2022-11-15T05:16:47;100588.97;;;9.33;100.00
59757;BME280;45631;51.962;5.974;2022-11-15T05:19:15;100580.34;;;9.30;100.00
59757;BME280;45631;51.962;5.974;2022-11-15T05:21:43;100584.91;;;9.41;100.00
59757;BME280;45631;51.962;5.974;2022-11-15T05:24:11;100578.81;;;9.41;100.00
59757;BME280;45631;51.962;5.974;2022-11-15T05:26:39;100576.09;;;9.42;100.00
59757;BME280;45631;51.962;5.974;2022-11-15T05:29:09;100568.13;;;9.44;100.00
59757;BME280;45631;51.962;5.974;2022-11-15T05:31:40;100568.13;;;9.44;100.00
59757;BME280;45631;51.962;5.974;2022-11-15T05:34:09;100575.59;;;9.50;100.00
59757;BME280;45631;51.962;5.974;2022-11-15T05:36:38;100570.75;;;9.44;100.00
59757;BME280;45631;51.962;5.974;2022-11-15T05:39:08;100574.03;;;9.47;100.00
59757;BME280;45631;51.962;5.974;2022-11-15T05:41:39;100577.38;;;9.50;100.00
59757;BME280;45631;51.962;5.974;2022-11-15T05:44:12;100580.09;;;9.48;100.00
59757;BME280;45631;51.962;5.974;2022-11-15T05:46:41;100582.72;;;9.48;100.00
59757;BME280;45631;51.962;5.974;2022-11-15T05:49:12;100589.47;;;9.52;100.00
59757;BME280;45631;51.962;5.974;2022-11-15T05:51:41;100587.56;;;9.54;100.00
59757;BME280;45631;51.962;5.974;2022-11-15T05:54:13;100587.56;;;9.54;100.00
59757;BME280;45631;51.962;5.974;2022-11-15T05:56:42;100586.53;;;9.57;100.00
59757;BME280;45631;51.962;5.974;2022-11-15T05:59:12;100587.66;;;9.53;100.00
59757;BME280;45631;51.962;5.974;2022-11-15T06:01:41;100584.75;;;9.57;100.00
59757;BME280;45631;51.962;5.974;2022-11-15T06:04:09;100584.34;;;9.63;100.00
59757;BME280;45631;51.962;5.974;2022-11-15T06:06:37;100583.72;;;9.60;100.00
59757;BME280;45631;51.962;5.974;2022-11-15T06:09:06;100596.75;;;9.61;100.00
59757;BME280;45631;51.962;5.974;2022-11-15T06:11:34;100602.84;;;9.62;100.00
59757;BME280;45631;51.962;5.974;2022-11-15T06:14:02;100596.34;;;9.68;100.00
59757;BME280;45631;51.962;5.974;2022-11-15T06:16:31;100592.03;;;9.67;100.00
59757;BME280;45631;51.962;5.974;2022-11-15T06:19:00;100592.88;;;9.67;100.00
59757;BME280;45631;51.962;5.974;2022-11-15T06:21:28;100585.44;;;9.74;100.00
59757;BME280;45631;51.962;5.974;2022-11-15T06:23:56;100587.31;;;9.72;100.00
59757;BME280;45631;51.962;5.974;2022-11-15T06:26:24;100580.41;;;9.71;100.00
59757;BME280;45631;51.962;5.974;2022-11-15T06:28:52;100581.22;;;9.71;100.00
59757;BME280;45631;51.962;5.974;2022-11-15T06:31:20;100584.78;;;9.70;100.00
59757;BME280;45631;51.962;5.974;2022-11-15T06:33:50;100588.78;;;9.76;100.00
59757;BME280;45631;51.962;5.974;2022-11-15T06:36:18;100591.25;;;9.79;100.00
59757;BME280;45631;51.962;5.974;2022-11-15T06:38:46;100593.00;;;9.78;100.00
59757;BME280;45631;51.962;5.974;2022-11-15T06:41:15;100598.91;;;9.82;100.00
59757;BME280;45631;51.962;5.974;2022-11-15T06:43:43;100608.16;;;9.88;100.00
59757;BME280;45631;51.962;5.974;2022-11-15T06:46:11;100611.28;;;9.80;100.00
59757;BME280;45631;51.962;5.974;2022-11-15T06:48:39;100620.13;;;9.79;100.00
59757;BME280;45631;51.962;5.974;2022-11-15T06:51:09;100611.19;;;9.81;100.00
59757;BME280;45631;51.962;5.974;2022-11-15T06:53:37;100609.53;;;9.80;100.00
59757;BME280;45631;51.962;5.974;2022-11-15T06:56:06;100606.03;;;9.80;100.00
59757;BME280;45631;51.962;5.974;2022-11-15T06:58:36;100604.06;;;9.84;100.00
59757;BME280;45631;51.962;5.974;2022-11-15T07:01:06;100611.19;;;9.81;100.00
59757;BME280;45631;51.962;5.974;2022-11-15T07:03:35;100611.94;;;9.84;100.00
59757;BME280;45631;51.962;5.974;2022-11-15T07:06:04;100607.72;;;9.81;100.00
59757;BME280;45631;51.962;5.974;2022-11-15T07:08:35;100614.47;;;9.85;100.00
59757;BME280;45631;51.962;5.974;2022-11-15T07:11:06;100613.41;;;9.88;100.00
59757;BME280;45631;51.962;5.974;2022-11-15T07:13:35;100614.06;;;9.91;100.00
59757;BME280;45631;51.962;5.974;2022-11-15T07:16:05;100621.31;;;9.88;100.00
59757;BME280;45631;51.962;5.974;2022-11-15T07:18:34;100611.84;;;9.85;100.00
59757;BME280;45631;51.962;5.974;2022-11-15T07:21:05;100625.78;;;9.86;100.00
59757;BME280;45631;51.962;5.974;2022-11-15T07:23:35;100622.13;;;9.88;100.00
59757;BME280;45631;51.962;5.974;2022-11-15T07:26:05;100626.75;;;9.85;100.00
59757;BME280;45631;51.962;5.974;2022-11-15T07:28:34;100632.56;;;9.90;100.00
59757;BME280;45631;51.962;5.974;2022-11-15T07:31:03;100623.16;;;9.86;100.00
59757;BME280;45631;51.962;5.974;2022-11-15T07:33:32;100628.13;;;9.90;100.00
59757;BME280;45631;51.962;5.974;2022-11-15T07:36:01;100627.94;;;9.93;100.00
59757;BME280;45631;51.962;5.974;2022-11-15T07:38:30;100639.38;;;9.92;100.00
59757;BME280;45631;51.962;5.974;2022-11-15T07:41:01;100641.81;;;9.95;100.00
59757;BME280;45631;51.962;5.974;2022-11-15T07:43:29;100639.91;;;9.97;100.00
59757;BME280;45631;51.962;5.974;2022-11-15T07:46:04;100642.53;;;9.97;100.00
59757;BME280;45631;51.962;5.974;2022-11-15T07:48:36;100640.56;;;10.01;100.00
59757;BME280;45631;51.962;5.974;2022-11-15T07:51:11;100640.38;;;10.04;100.00
59757;BME280;45631;51.962;5.974;2022-11-15T07:53:41;100645.50;;;10.06;100.00
59757;BME280;45631;51.962;5.974;2022-11-15T07:56:10;100639.53;;;10.04;100.00
59757;BME280;45631;51.962;5.974;2022-11-15T07:58:38;100639.31;;;10.07;100.00
59757;BME280;45631;51.962;5.974;2022-11-15T08:01:07;100632.25;;;10.07;100.00
59757;BME280;45631;51.962;5.974;2022-11-15T08:03:36;100642.66;;;10.09;100.00
59757;BME280;45631;51.962;5.974;2022-11-15T08:06:05;100636.47;;;10.10;100.00
59757;BME280;45631;51.962;5.974;2022-11-15T08:08:33;100639.97;;;10.10;100.00
59757;BME280;45631;51.962;5.974;2022-11-15T08:11:01;100636.38;;;10.11;100.00
59757;BME280;45631;51.962;5.974;2022-11-15T08:13:31;100641.44;;;10.14;100.00
59757;BME280;45631;51.962;5.974;2022-11-15T08:16:01;100642.28;;;10.15;100.00
59757;BME280;45631;51.962;5.974;2022-11-15T08:18:32;100640.81;;;10.24;100.00
59757;BME280;45631;51.962;5.974;2022-11-15T08:21:01;100629.69;;;10.20;100.00
59757;BME280;45631;51.962;5.974;2022-11-15T08:23:29;100629.03;;;10.17;100.00
59757;BME280;45631;51.962;5.974;2022-11-15T08:26:00;100630.50;;;10.21;100.00
59757;BME280;45631;51.962;5.974;2022-11-15T08:28:32;100632.19;;;10.22;100.00
59757;BME280;45631;51.962;5.974;2022-11-15T08:31:00;100618.94;;;10.23;100.00
59757;BME280;45631;51.962;5.974;2022-11-15T08:33:28;100624.00;;;10.26;100.00
59757;BME280;45631;51.962;5.974;2022-11-15T08:35:58;100613.38;;;10.28;100.00
59757;BME280;45631;51.962;5.974;2022-11-15T08:38:26;100614.59;;;10.37;100.00
59757;BME280;45631;51.962;5.974;2022-11-15T08:41:03;100625.75;;;10.40;100.00
59757;BME280;45631;51.962;5.974;2022-11-15T08:43:35;100622.56;;;10.48;100.00
59757;BME280;45631;51.962;5.974;2022-11-15T08:46:03;100627.97;;;10.59;100.00
59757;BME280;45631;51.962;5.974;2022-11-15T08:48:31;100627.75;;;10.62;100.00
59757;BME280;45631;51.962;5.974;2022-11-15T08:51:00;100625.84;;;10.64;100.00
59757;BME280;45631;51.962;5.974;2022-11-15T08:53:28;100624.50;;;10.72;100.00
59757;BME280;45631;51.962;5.974;2022-11-15T08:55:56;100618.16;;;10.74;100.00
59757;BME280;45631;51.962;5.974;2022-11-15T08:58:24;100623.31;;;10.76;100.00
59757;BME280;45631;51.962;5.974;2022-11-15T09:00:53;100621.84;;;10.85;100.00
59757;BME280;45631;51.962;5.974;2022-11-15T09:03:21;100633.50;;;10.80;100.00
59757;BME280;45631;51.962;5.974;2022-11-15T09:05:54;100622.88;;;10.82;100.00
59757;BME280;45631;51.962;5.974;2022-11-15T09:08:22;100625.00;;;10.90;100.00
59757;BME280;45631;51.962;5.974;2022-11-15T09:11:10;100620.56;;;10.90;100.00
59757;BME280;45631;51.962;5.974;2022-11-15T09:13:39;100611.19;;;10.86;100.00
59757;BME280;45631;51.962;5.974;2022-11-15T09:16:08;100612.13;;;10.85;100.00
59757;BME280;45631;51.962;5.974;2022-11-15T09:18:38;100615.84;;;10.82;100.00
59757;BME280;45631;51.962;5.974;2022-11-15T09:21:07;100609.72;;;10.82;100.00
59757;BME280;45631;51.962;5.974;2022-11-15T09:23:35;100608.56;;;10.86;100.00
59757;BME280;45631;51.962;5.974;2022-11-15T09:26:04;100615.94;;;10.81;100.00
59757;BME280;45631;51.962;5.974;2022-11-15T09:28:33;100601.94;;;10.80;100.00
59757;BME280;45631;51.962;5.974;2022-11-15T09:31:03;100606.38;;;10.80;100.00
59757;BME280;45631;51.962;5.974;2022-11-15T09:33:33;100595.00;;;10.92;100.00
59757;BME280;45631;51.962;5.974;2022-11-15T09:36:03;100594.59;;;10.86;100.00
59757;BME280;45631;51.962;5.974;2022-11-15T09:38:32;100595.81;;;10.93;100.00
59757;BME280;45631;51.962;5.974;2022-11-15T09:50:12;100579.69;;;10.97;100.00
59757;BME280;45631;51.962;5.974;2022-11-15T09:52:43;100579.50;;;11.01;100.00
59757;BME280;45631;51.962;5.974;2022-11-15T09:55:14;100589.81;;;11.04;100.00
59757;BME280;45631;51.962;5.974;2022-11-15T09:57:53;100586.84;;;11.08;100.00
59757;BME280;45631;51.962;5.974;2022-11-15T10:00:30;100585.00;;;11.22;100.00
59757;BME280;45631;51.962;5.974;2022-11-15T10:03:19;100573.00;;;11.30;100.00
59757;BME280;45631;51.962;5.974;2022-11-15T10:05:55;100572.09;;;11.43;100.00
59757;BME280;45631;51.962;5.974;2022-11-15T10:08:48;100562.06;;;11.48;100.00
59757;BME280;45631;51.962;5.974;2022-11-15T10:11:20;100559.44;;;11.48;100.00
59757;BME280;45631;51.962;5.974;2022-11-15T10:14:10;100563.53;;;11.52;100.00
59757;BME280;45631;51.962;5.974;2022-11-15T10:17:01;100565.94;;;11.55;100.00
59757;BME280;45631;51.962;5.974;2022-11-15T10:19:38;100563.34;;;11.66;100.00
59757;BME280;45631;51.962;5.974;2022-11-15T10:22:21;100558.56;;;11.72;100.00
59757;BME280;45631;51.962;5.974;2022-11-15T10:25:01;100556.06;;;11.70;100.00
59757;BME280;45631;51.962;5.974;2022-11-15T10:27:39;100560.81;;;11.65;100.00
59757;BME280;45631;51.962;5.974;2022-11-15T10:30:12;100554.91;;;11.61;100.00
59757;BME280;45631;51.962;5.974;2022-11-15T10:32:43;100547.75;;;11.63;100.00
59757;BME280;45631;51.962;5.974;2022-11-15T10:35:24;100558.69;;;11.70;100.00
59757;BME280;45631;51.962;5.974;2022-11-15T10:38:04;100559.25;;;11.62;100.00
59757;BME280;45631;51.962;5.974;2022-11-15T10:40:34;100548.03;;;11.72;100.00
59757;BME280;45631;51.962;5.974;2022-11-15T10:43:14;100547.78;;;11.75;100.00
59757;BME280;45631;51.962;5.974;2022-11-15T10:45:44;100539.78;;;11.76;100.00
59757;BME280;45631;51.962;5.974;2022-11-15T10:48:22;100527.22;;;11.80;100.00
59757;BME280;45631;51.962;5.974;2022-11-15T10:50:52;100533.56;;;11.77;100.00
59757;BME280;45631;51.962;5.974;2022-11-15T10:53:25;100524.34;;;11.83;100.00
59757;BME280;45631;51.962;5.974;2022-11-15T10:55:59;100517.88;;;11.87;100.00
59757;BME280;45631;51.962;5.974;2022-11-15T10:58:36;100518.78;;;11.99;100.00
59757;BME280;45631;51.962;5.974;2022-11-15T11:01:14;100498.19;;;12.04;100.00
59757;BME280;45631;51.962;5.974;2022-11-15T11:03:44;100514.22;;;12.01;100.00
59757;BME280;45631;51.962;5.974;2022-11-15T11:06:14;100512.09;;;12.06;100.00
59757;BME280;45631;51.962;5.974;2022-11-15T11:08:56;100508.50;;;12.07;100.00
59757;BME280;45631;51.962;5.974;2022-11-15T11:11:25;100518.22;;;12.07;100.00
59757;BME280;45631;51.962;5.974;2022-11-15T11:14:12;100511.97;;;12.08;100.00
59757;BME280;45631;51.962;5.974;2022-11-15T11:16:48;100510.19;;;12.08;100.00
59757;BME280;45631;51.962;5.974;2022-11-15T11:19:39;100495.69;;;12.14;100.00
59757;BME280;45631;51.962;5.974;2022-11-15T11:22:18;100506.00;;;12.06;100.00
59757;BME280;45631;51.962;5.974;2022-11-15T11:24:58;100505.03;;;12.07;100.00
59757;BME280;45631;51.962;5.974;2022-11-15T11:27:39;100494.25;;;12.10;100.00
59757;BME280;45631;51.962;5.974;2022-11-15T11:30:12;100498.69;;;12.09;100.00
59757;BME280;45631;51.962;5.974;2022-11-15T11:33:05;100489.09;;;12.08;100.00
59757;BME280;45631;51.962;5.974;2022-11-15T11:35:43;100493.13;;;12.01;100.00
59757;BME280;45631;51.962;5.974;2022-11-15T11:41:13;100493.38;;;11.98;100.00
59757;BME280;45631;51.962;5.974;2022-11-15T11:43:53;100489.44;;;12.04;100.00
59757;BME280;45631;51.962;5.974;2022-11-15T11:46:48;100489.81;;;11.99;100.00
59757;BME280;45631;51.962;5.974;2022-11-15T11:49:21;100479.56;;;11.83;100.00
59757;BME280;45631;51.962;5.974;2022-11-15T11:51:58;100488.66;;;11.79;100.00
59757;BME280;45631;51.962;5.974;2022-11-15T11:54:32;100489.75;;;11.88;100.00
59757;BME280;45631;51.962;5.974;2022-11-15T11:59:54;100482.44;;;11.91;100.00
59757;BME280;45631;51.962;5.974;2022-11-15T12:02:28;100477.16;;;11.91;100.00
59757;BME280;45631;51.962;5.974;2022-11-15T12:04:59;100478.47;;;11.86;100.00
59757;BME280;45631;51.962;5.974;2022-11-15T12:07:32;100471.06;;;11.91;100.00
59757;BME280;45631;51.962;5.974;2022-11-15T12:10:05;100475.72;;;11.87;100.00
59757;BME280;45631;51.962;5.974;2022-11-15T12:12:49;100458.72;;;11.91;100.00
59757;BME280;45631;51.962;5.974;2022-11-15T12:15:22;100448.34;;;12.01;100.00
59757;BME280;45631;51.962;5.974;2022-11-15T12:17:51;100441.88;;;12.05;100.00
59757;BME280;45631;51.962;5.974;2022-11-15T12:20:22;100442.38;;;11.99;100.00
59757;BME280;45631;51.962;5.974;2022-11-15T12:22:54;100431.31;;;11.94;100.00
59757;BME280;45631;51.962;5.974;2022-11-15T12:25:29;100428.31;;;11.87;100.00
59757;BME280;45631;51.962;5.974;2022-11-15T12:28:07;100416.31;;;11.83;100.00
59757;BME280;45631;51.962;5.974;2022-11-15T12:30:44;100412.28;;;11.90;100.00
59757;BME280;45631;51.962;5.974;2022-11-15T12:33:34;100417.53;;;11.90;100.00
59757;BME280;45631;51.962;5.974;2022-11-15T12:36:04;100413.94;;;11.91;100.00
59757;BME280;45631;51.962;5.974;2022-11-15T12:38:53;100404.59;;;11.87;100.00
59757;BME280;45631;51.962;5.974;2022-11-15T12:41:22;100394.53;;;11.92;100.00
59757;BME280;45631;51.962;5.974;2022-11-15T12:43:52;100388.66;;;11.89;100.00
59757;BME280;45631;51.962;5.974;2022-11-15T12:46:26;100383.78;;;11.95;100.00
59757;BME280;45631;51.962;5.974;2022-11-15T12:49:45;100377.19;;;12.01;100.00
59757;BME280;45631;51.962;5.974;2022-11-15T12:52:14;100377.53;;;12.08;100.00
59757;BME280;45631;51.962;5.974;2022-11-15T12:54:59;100369.19;;;12.03;100.00
59757;BME280;45631;51.962;5.974;2022-11-15T12:57:40;100368.06;;;12.05;100.00
59757;BME280;45631;51.962;5.974;2022-11-15T13:00:40;100357.44;;;12.07;100.00
59757;BME280;45631;51.962;5.974;2022-11-15T13:03:23;100354.69;;;12.08;100.00
59757;BME280;45631;51.962;5.974;2022-11-15T13:05:58;100350.09;;;12.10;100.00
59757;BME280;45631;51.962;5.974;2022-11-15T13:08:39;100351.69;;;12.02;100.00
59757;BME280;45631;51.962;5.974;2022-11-15T13:11:44;100342.09;;;12.00;100.00
59757;BME280;45631;51.962;5.974;2022-11-15T13:14:42;100340.53;;;11.98;100.00
59757;BME280;45631;51.962;5.974;2022-11-15T13:17:27;100334.19;;;12.00;100.00
59757;BME280;45631;51.962;5.974;2022-11-15T13:20:14;100325.81;;;12.07;100.00
59757;BME280;45631;51.962;5.974;2022-11-15T13:22:45;100322.56;;;12.03;100.00
59757;BME280;45631;51.962;5.974;2022-11-15T13:25:35;100316.09;;;12.07;100.00
59757;BME280;45631;51.962;5.974;2022-11-15T13:28:11;100321.97;;;12.11;100.00
59757;BME280;45631;51.962;5.974;2022-11-15T13:30:50;100312.97;;;12.13;100.00
59757;BME280;45631;51.962;5.974;2022-11-15T13:33:22;100307.22;;;12.08;100.00
59757;BME280;45631;51.962;5.974;2022-11-15T13:35:53;100306.63;;;12.05;100.00